Airfield :
LOGIN :

Register | Disclaimer

   EN    FR    IT 

 










Legend :    VFR   Marginal VFR   IFR   Intensive IFR   Very Intensive IFR
Visi :
Ceiling :
>= 8 km
>= 3000ft
5 to 8 km
1000 to 3000 ft
1500m to 5 km
500 to 1000 ft
800 to 1500m
200 to 500 ft
< 800m
< 200 ft
Symbols :   Thunderstorms  Fog  Heavy snow  Heavy precipitations  Wind > 20 kt
SIGMETs :     Misc.  Thunderstorms  Icing  Turbulence  Mountain Waves  Volcanic Ashes






- Airport Elevation : 663 ft
- IATA code : BZK


UUBP - Bryansk

CURRENT METAR :
  • 200500Z 32004MPS CAVOK 07/05 Q1019 R34/CLRD70 NOSIG RMK QFE747/0996

EXPIRED METARs :
  • 200430Z 31005MPS CAVOK 07/05 Q1019 R34/CLRD70 NOSIG RMK QFE747/0996
  • 200400Z 31005MPS CAVOK 06/05 Q1019 R34/CLRD70 NOSIG RMK QFE746/0995
  • 200300Z 31005MPS CAVOK 05/04 Q1018 R34/CLRD70 NOSIG RMK QFE746/0995

TAF TAF UUBP
Valid from the 20 at 05:00 until the 20 at 15:00 UTC


200355Z 2005/2015 30005MPS CAVOK
TEMPO 2009/2015 33006G12MPS SCT033



MET'MAP, your aeronautical weather chart ! - Copyright ORBIFLY December 2007 - Disclaimer

ORBIFLY MET'MAP TEAM :

Programming & Development : Alexandra Zaïnal
Concept & original design : Baudouin d'Aumeries
Assistance for programming : Marc-Olivier Méhu
Technical & hardware support : Manuel Goepfert

Contact : metmap@orbifly.com




SOURCES & CREDITS :

   NOAA